createdAt,value
2018-08-18T00:00:44.784Z,20.70
2018-08-18T00:01:44.961Z,20.66
2018-08-18T00:02:45.141Z,20.70
2018-08-18T00:03:45.316Z,20.80
2018-08-18T00:04:45.510Z,20.90
2018-08-18T00:05:45.675Z,20.88
2018-08-18T00:06:45.854Z,21.02
2018-08-18T00:07:46.037Z,21.06
2018-08-18T00:08:46.234Z,21.11
2018-08-18T00:09:46.400Z,21.00
2018-08-18T00:10:46.590Z,21.03
2018-08-18T00:11:46.778Z,21.02
2018-08-18T00:12:46.952Z,20.99
2018-08-18T00:13:47.148Z,21.06
2018-08-18T00:14:47.343Z,21.03
2018-08-18T00:15:47.526Z,21.05
2018-08-18T00:16:47.702Z,21.02
2018-08-18T00:17:47.891Z,21.00
2018-08-18T00:18:48.313Z,21.03
2018-08-18T00:19:48.233Z,21.09
2018-08-18T00:20:48.419Z,21.20
2018-08-18T00:21:48.578Z,21.06
2018-08-18T00:22:48.756Z,21.07
2018-08-18T00:23:48.918Z,21.05
2018-08-18T00:24:49.087Z,21.03
2018-08-18T00:25:49.279Z,21.07
2018-08-18T00:26:49.466Z,21.03
2018-08-18T00:27:49.693Z,20.90
2018-08-18T00:28:49.830Z,20.90
2018-08-18T00:29:50.007Z,20.78
2018-08-18T00:30:50.193Z,20.70
2018-08-18T00:31:50.376Z,20.80
2018-08-18T00:32:50.564Z,20.75
2018-08-18T00:33:50.728Z,20.66
2018-08-18T00:34:50.901Z,20.63
2018-08-18T00:35:51.072Z,20.66
2018-08-18T00:36:51.254Z,20.63
2018-08-18T00:37:51.436Z,20.63
2018-08-18T00:38:51.617Z,20.72
2018-08-18T00:39:51.786Z,20.63
2018-08-18T00:40:51.968Z,20.80
2018-08-18T00:41:52.151Z,20.69
2018-08-18T00:42:52.332Z,20.80
2018-08-18T00:43:52.513Z,20.84
2018-08-18T00:44:52.690Z,20.77
2018-08-18T00:45:52.861Z,20.77
2018-08-18T00:46:53.031Z,20.81
2018-08-18T00:47:53.216Z,20.77
2018-08-18T00:48:53.391Z,20.80
2018-08-18T00:49:53.572Z,20.75
2018-08-18T00:50:53.746Z,20.80
2018-08-18T00:51:53.946Z,20.80
2018-08-18T00:52:54.126Z,20.81
2018-08-18T00:53:54.314Z,20.77
2018-08-18T00:54:54.492Z,20.80
2018-08-18T00:55:54.672Z,20.80
2018-08-18T00:56:54.855Z,20.66
2018-08-18T00:57:55.038Z,20.69
2018-08-18T00:58:55.262Z,20.69
2018-08-18T00:59:55.405Z,20.81
2018-08-18T01:00:55.594Z,20.82
2018-08-18T01:01:55.770Z,20.77
2018-08-18T01:02:56.193Z,20.80
2018-08-18T01:03:56.133Z,20.65
2018-08-18T01:04:56.326Z,20.67
2018-08-18T01:05:56.505Z,20.66
2018-08-18T01:06:56.681Z,20.62
2018-08-18T01:07:56.867Z,20.66
2018-08-18T01:08:57.044Z,20.56
2018-08-18T01:09:57.222Z,20.62
2018-08-18T01:10:57.454Z,20.56
2018-08-18T01:11:57.617Z,20.58
2018-08-18T01:12:57.948Z,20.56
2018-08-18T01:13:58.053Z,20.55
2018-08-18T01:14:58.330Z,20.34
2018-08-18T01:15:58.329Z,20.48
2018-08-18T01:16:58.513Z,20.36
2018-08-18T01:17:58.697Z,20.37
2018-08-18T01:18:58.887Z,20.29
2018-08-18T01:19:59.055Z,20.32
2018-08-18T01:20:59.238Z,20.39
2018-08-18T01:21:59.424Z,20.37
2018-08-18T01:22:59.610Z,20.50
2018-08-18T01:23:59.813Z,20.50
2018-08-18T01:24:59.986Z,20.28
2018-08-18T01:27:00.413Z,20.40
2018-08-18T01:28:00.540Z,20.37
2018-08-18T01:29:00.707Z,20.26
2018-08-18T01:30:00.911Z,20.22
2018-08-18T01:31:01.077Z,20.25
2018-08-18T01:32:01.259Z,20.14
2018-08-18T01:33:01.435Z,20.13
2018-08-18T01:34:01.625Z,20.09
2018-08-18T01:35:01.813Z,20.07
2018-08-18T01:36:01.994Z,20.06
2018-08-18T01:37:02.177Z,20.04
2018-08-18T01:38:02.347Z,19.92
2018-08-18T01:39:02.569Z,19.94
2018-08-18T01:40:02.722Z,19.92
2018-08-18T01:41:02.923Z,19.85
2018-08-18T01:42:03.095Z,19.86
2018-08-18T01:43:03.280Z,19.99
2018-08-18T01:44:03.458Z,20.06
2018-08-18T01:45:03.649Z,19.92
2018-08-18T01:46:03.834Z,20.00
2018-08-18T01:47:04.018Z,20.07
2018-08-18T01:48:04.202Z,20.04
2018-08-18T01:49:04.377Z,20.04
2018-08-18T01:50:04.563Z,19.99
2018-08-18T01:51:05.478Z,20.00
2018-08-18T01:52:04.908Z,20.04
2018-08-18T01:53:05.092Z,20.02
2018-08-18T01:54:05.280Z,19.96
2018-08-18T01:55:05.454Z,20.04
2018-08-18T01:56:05.644Z,20.10
2018-08-18T01:57:05.827Z,20.09
2018-08-18T01:58:06.012Z,20.06
2018-08-18T01:59:06.200Z,20.04
2018-08-18T02:00:06.402Z,20.03
2018-08-18T02:01:06.576Z,20.11
2018-08-18T02:02:06.763Z,20.11
2018-08-18T02:03:06.946Z,20.11
2018-08-18T02:04:07.135Z,20.09
2018-08-18T02:05:07.316Z,20.14
2018-08-18T02:06:07.490Z,20.21
2018-08-18T02:07:07.678Z,20.13
2018-08-18T02:08:07.868Z,20.21
2018-08-18T02:09:08.044Z,20.22
2018-08-18T02:10:08.235Z,20.22
2018-08-18T02:11:08.411Z,20.28
2018-08-18T02:12:08.593Z,20.22
2018-08-18T02:13:08.769Z,20.21
2018-08-18T02:14:08.961Z,20.21
2018-08-18T02:15:09.159Z,20.19
2018-08-18T02:16:09.377Z,20.19
2018-08-18T02:17:09.522Z,20.07
2018-08-18T02:18:09.699Z,20.04
2018-08-18T02:19:09.882Z,20.00
2018-08-18T02:20:10.129Z,19.94
2018-08-18T02:21:10.256Z,19.89
2018-08-18T02:22:10.429Z,19.82
2018-08-18T02:23:10.609Z,19.82
2018-08-18T02:24:10.790Z,19.81
2018-08-18T02:25:10.977Z,19.79
2018-08-18T02:26:11.152Z,19.79
2018-08-18T02:27:11.325Z,19.69
2018-08-18T02:28:11.506Z,19.82
2018-08-18T02:29:11.685Z,19.67
2018-08-18T02:30:11.865Z,19.73
2018-08-18T02:31:12.054Z,19.69
2018-08-18T02:32:12.237Z,19.71
2018-08-18T02:33:12.418Z,19.69
2018-08-18T02:34:12.598Z,19.74
2018-08-18T02:35:12.773Z,19.70
2018-08-18T02:36:12.963Z,19.71
2018-08-18T02:37:13.149Z,19.82
2018-08-18T02:38:13.329Z,19.81
2018-08-18T02:39:13.512Z,19.85
2018-08-18T02:40:13.765Z,19.81
2018-08-18T02:41:13.874Z,19.74
2018-08-18T02:42:14.306Z,19.84
2018-08-18T02:43:14.255Z,19.82
2018-08-18T02:44:14.444Z,19.85
2018-08-18T02:45:14.624Z,19.89
2018-08-18T02:46:14.808Z,19.85
2018-08-18T02:47:15.000Z,19.85
2018-08-18T02:48:15.184Z,19.79
2018-08-18T02:49:15.612Z,19.84
2018-08-18T02:50:15.540Z,19.79
2018-08-18T02:51:15.720Z,19.70
2018-08-18T02:52:15.906Z,19.79
2018-08-18T02:53:16.087Z,19.71
2018-08-18T02:54:16.271Z,19.73
2018-08-18T02:55:16.451Z,19.69
2018-08-18T02:56:16.629Z,19.63
2018-08-18T02:57:16.828Z,19.67
2018-08-18T02:58:17.022Z,19.66
2018-08-18T02:59:17.207Z,19.64
2018-08-18T03:00:17.380Z,19.52
2018-08-18T03:01:17.577Z,19.49
2018-08-18T03:02:17.755Z,19.49
2018-08-18T03:03:17.941Z,19.51
2018-08-18T03:04:18.124Z,19.48
2018-08-18T03:05:18.310Z,19.58
2018-08-18T03:06:18.489Z,19.47
2018-08-18T03:07:18.671Z,19.48
2018-08-18T03:08:18.846Z,19.44
2018-08-18T03:09:19.035Z,19.39
2018-08-18T03:10:19.215Z,19.37
2018-08-18T03:11:19.404Z,19.37
2018-08-18T03:12:19.581Z,19.39
2018-08-18T03:13:19.772Z,19.36
2018-08-18T03:14:19.945Z,19.39
2018-08-18T03:15:20.129Z,19.36
2018-08-18T03:16:20.306Z,19.40
2018-08-18T03:17:20.488Z,19.40
2018-08-18T03:18:20.676Z,19.40
2018-08-18T03:19:20.856Z,19.37
2018-08-18T03:20:21.035Z,19.34
2018-08-18T03:21:21.220Z,19.33
2018-08-18T03:22:21.415Z,19.24
2018-08-18T03:23:21.580Z,19.18
2018-08-18T03:24:21.767Z,19.31
2018-08-18T03:25:21.949Z,19.27
2018-08-18T03:26:22.128Z,19.33
2018-08-18T03:27:22.314Z,19.27
2018-08-18T03:28:22.492Z,19.21
2018-08-18T03:29:22.671Z,19.29
2018-08-18T03:30:22.861Z,19.22
2018-08-18T03:31:23.044Z,19.16
2018-08-18T03:32:23.221Z,19.15
2018-08-18T03:33:23.419Z,19.22
2018-08-18T03:34:23.599Z,19.26
2018-08-18T03:35:23.785Z,19.33
2018-08-18T03:36:23.968Z,19.30
2018-08-18T03:37:24.395Z,19.33
2018-08-18T03:38:24.345Z,19.30
2018-08-18T03:39:24.520Z,19.22
2018-08-18T03:40:24.712Z,19.37
2018-08-18T03:41:24.896Z,19.22
2018-08-18T03:42:25.087Z,19.27
2018-08-18T03:43:25.270Z,19.26
2018-08-18T03:44:25.451Z,19.08
2018-08-18T03:45:25.643Z,18.96
2018-08-18T03:46:25.832Z,19.08
2018-08-18T03:47:26.016Z,19.08
2018-08-18T03:48:26.200Z,19.08
2018-08-18T03:49:26.380Z,19.11
2018-08-18T03:50:26.569Z,19.02
2018-08-18T03:51:26.741Z,18.95
2018-08-18T03:52:27.042Z,19.08
2018-08-18T03:53:27.107Z,19.00
2018-08-18T03:54:27.292Z,19.07
2018-08-18T03:55:27.473Z,19.00
2018-08-18T03:56:27.651Z,19.00
2018-08-18T03:57:27.840Z,18.96
2018-08-18T03:58:28.021Z,18.93
2018-08-18T03:59:28.211Z,18.77
2018-08-18T04:00:28.386Z,18.89
2018-08-18T04:01:28.590Z,18.73
2018-08-18T04:02:28.754Z,18.75
2018-08-18T04:03:28.932Z,18.71
2018-08-18T04:04:29.121Z,18.75
2018-08-18T04:05:29.301Z,18.70
2018-08-18T04:06:29.490Z,18.86
2018-08-18T04:07:29.673Z,18.92
2018-08-18T04:08:29.857Z,18.88
2018-08-18T04:09:30.038Z,18.80
2018-08-18T04:10:30.224Z,18.78
2018-08-18T04:11:30.403Z,18.78
2018-08-18T04:12:30.588Z,18.86
2018-08-18T04:13:30.763Z,18.74
2018-08-18T04:14:30.946Z,18.80
2018-08-18T04:15:31.128Z,18.78
2018-08-18T04:16:31.311Z,18.92
2018-08-18T04:17:31.505Z,18.96
2018-08-18T04:18:31.922Z,18.96
2018-08-18T04:19:31.861Z,18.90
2018-08-18T04:20:32.038Z,18.89
2018-08-18T04:21:32.223Z,18.95
2018-08-18T04:22:32.400Z,18.98
2018-08-18T04:23:32.583Z,19.00
2018-08-18T04:24:32.768Z,19.07
2018-08-18T04:25:32.958Z,18.96
2018-08-18T04:26:33.136Z,19.00
2018-08-18T04:27:33.319Z,19.02
2018-08-18T04:28:33.505Z,18.95
2018-08-18T04:29:33.689Z,19.00
2018-08-18T04:30:33.885Z,18.99
2018-08-18T04:31:34.706Z,19.09
2018-08-18T04:32:34.271Z,19.09
2018-08-18T04:33:35.128Z,19.12
2018-08-18T04:34:34.806Z,19.04
2018-08-18T04:35:34.925Z,19.00
2018-08-18T04:36:35.046Z,19.08
2018-08-18T04:37:36.169Z,19.18
2018-08-18T04:38:35.414Z,19.16
2018-08-18T04:39:35.736Z,19.15
2018-08-18T04:40:35.880Z,19.16
2018-08-18T04:41:36.119Z,19.34
2018-08-18T04:42:36.181Z,19.26
2018-08-18T04:43:36.411Z,19.34
2018-08-18T04:44:36.501Z,19.31
2018-08-18T04:45:36.675Z,19.19
2018-08-18T04:46:36.854Z,19.19
2018-08-18T04:47:37.037Z,19.21
2018-08-18T04:48:37.221Z,19.31
2018-08-18T04:49:37.406Z,19.21
2018-08-18T04:50:37.650Z,19.12
2018-08-18T04:51:37.768Z,19.14
2018-08-18T04:52:37.945Z,19.19
2018-08-18T04:53:38.131Z,19.15
2018-08-18T04:54:38.308Z,19.12
2018-08-18T04:55:38.485Z,19.21
2018-08-18T04:56:38.681Z,19.12
2018-08-18T04:57:38.855Z,19.15
2018-08-18T04:58:39.050Z,19.11
2018-08-18T04:59:39.232Z,19.14
2018-08-18T05:00:39.417Z,19.11
2018-08-18T05:01:39.604Z,19.12
2018-08-18T05:02:39.788Z,19.26
2018-08-18T05:03:39.974Z,19.33
2018-08-18T05:04:40.156Z,19.40
2018-08-18T05:05:40.342Z,19.48
2018-08-18T05:06:40.526Z,19.48
2018-08-18T05:07:40.710Z,19.37
2018-08-18T05:08:40.893Z,19.41
2018-08-18T05:09:41.072Z,19.31
2018-08-18T05:10:41.258Z,19.39
2018-08-18T05:11:41.527Z,19.44
2018-08-18T05:12:41.638Z,19.51
2018-08-18T05:13:42.066Z,19.51
2018-08-18T05:14:42.003Z,19.54
2018-08-18T05:15:42.183Z,19.56
2018-08-18T05:16:42.364Z,19.62
2018-08-18T05:17:42.562Z,19.67
2018-08-18T05:18:42.733Z,19.70
2018-08-18T05:19:42.917Z,19.69
2018-08-18T05:20:43.096Z,19.58
2018-08-18T05:21:43.278Z,19.55
2018-08-18T05:22:43.468Z,19.51
2018-08-18T05:23:43.650Z,19.39
2018-08-18T05:24:43.825Z,19.36
2018-08-18T05:25:44.009Z,19.39
2018-08-18T05:26:44.191Z,19.48
2018-08-18T05:27:44.376Z,19.51
2018-08-18T05:28:44.563Z,19.64
2018-08-18T05:29:44.746Z,19.69
2018-08-18T05:30:44.929Z,19.74
2018-08-18T05:31:45.102Z,19.79
2018-08-18T05:32:45.294Z,19.73
2018-08-18T05:33:45.476Z,19.63
2018-08-18T05:34:45.652Z,19.66
2018-08-18T05:35:45.844Z,19.70
2018-08-18T05:36:46.026Z,19.81
2018-08-18T05:37:46.224Z,19.73
2018-08-18T05:38:46.385Z,19.76
2018-08-18T05:39:46.606Z,19.76
2018-08-18T05:40:47.889Z,19.63
2018-08-18T05:41:46.921Z,19.59
2018-08-18T05:42:47.098Z,19.62
2018-08-18T05:43:47.282Z,19.62
2018-08-18T05:44:47.471Z,19.64
2018-08-18T05:45:47.646Z,19.64
2018-08-18T05:46:47.832Z,19.47
2018-08-18T05:48:48.183Z,19.58
2018-08-18T05:49:48.371Z,19.59
2018-08-18T05:50:48.550Z,19.76
2018-08-18T05:51:48.732Z,19.82
2018-08-18T05:52:48.916Z,19.82
2018-08-18T05:53:49.097Z,19.82
2018-08-18T05:54:49.276Z,19.84
2018-08-18T05:55:49.458Z,19.92
2018-08-18T05:56:49.628Z,19.92
2018-08-18T05:57:49.807Z,20.04
2018-08-18T05:58:49.986Z,20.06
2018-08-18T05:59:50.248Z,20.04
2018-08-18T06:00:50.332Z,20.16
2018-08-18T06:01:50.530Z,20.09
2018-08-18T06:02:50.724Z,20.24
2018-08-18T06:03:50.896Z,20.22
2018-08-18T06:04:51.078Z,20.21
2018-08-18T06:05:51.335Z,20.21
2018-08-18T06:06:51.452Z,20.28
2018-08-18T06:07:51.623Z,20.22
2018-08-18T06:08:51.805Z,20.26
2018-08-18T06:09:52.001Z,20.13
2018-08-18T06:10:52.182Z,20.25
2018-08-18T06:11:52.357Z,20.31
2018-08-18T06:12:52.535Z,20.28
2018-08-18T06:13:52.731Z,20.09
2018-08-18T06:14:52.911Z,20.13
2018-08-18T06:15:53.089Z,20.11
2018-08-18T06:16:53.266Z,20.09
2018-08-18T06:17:53.454Z,20.11
2018-08-18T06:18:53.633Z,20.21
2018-08-18T06:19:53.829Z,20.11
2018-08-18T06:20:53.981Z,20.21
2018-08-18T06:21:54.164Z,20.18
2018-08-18T06:22:54.358Z,20.19
2018-08-18T06:23:54.532Z,19.89
2018-08-18T06:24:54.725Z,20.06
2018-08-18T06:25:54.904Z,20.10
2018-08-18T06:26:55.091Z,20.04
2018-08-18T06:27:55.272Z,20.11
2018-08-18T06:28:55.771Z,20.14
2018-08-18T06:29:55.635Z,20.32
2018-08-18T06:30:55.818Z,20.29
2018-08-18T06:31:56.007Z,20.40
2018-08-18T06:32:56.181Z,20.41
2018-08-18T06:33:56.363Z,20.41
2018-08-18T06:34:56.638Z,20.47
2018-08-18T06:35:56.723Z,20.50
2018-08-18T06:36:56.900Z,20.56
2018-08-18T06:37:57.093Z,20.69
2018-08-18T06:38:57.268Z,20.75
2018-08-18T06:39:57.460Z,20.56
2018-08-18T06:40:57.710Z,20.66
2018-08-18T06:41:57.878Z,20.69
2018-08-18T06:42:58.007Z,20.80
2018-08-18T06:43:58.179Z,20.88
2018-08-18T06:44:58.368Z,21.00
2018-08-18T06:45:58.564Z,21.05
2018-08-18T06:46:58.751Z,21.09
2018-08-18T06:47:58.956Z,21.12
2018-08-18T06:48:59.119Z,21.06
2018-08-18T06:49:59.308Z,21.03
2018-08-18T06:50:59.511Z,20.96
2018-08-18T06:51:59.679Z,20.96
2018-08-18T06:53:00.094Z,20.97
2018-08-18T06:54:00.028Z,20.87
2018-08-18T06:55:00.410Z,20.87
2018-08-18T06:56:00.397Z,20.95
2018-08-18T06:57:00.692Z,21.06
2018-08-18T06:58:00.779Z,20.95
2018-08-18T06:59:00.982Z,21.14
2018-08-18T07:00:01.142Z,21.18
2018-08-18T07:01:01.336Z,21.35
2018-08-18T07:02:01.528Z,21.22
2018-08-18T07:03:01.718Z,21.51
2018-08-18T07:04:01.898Z,21.58
2018-08-18T07:05:02.067Z,21.80
2018-08-18T07:06:02.262Z,21.66
2018-08-18T07:07:02.413Z,21.76
2018-08-18T07:08:02.591Z,21.88
2018-08-18T07:09:02.791Z,21.98
2018-08-18T07:10:02.939Z,21.98
2018-08-18T07:11:03.130Z,22.04
2018-08-18T07:12:03.362Z,22.07
2018-08-18T07:13:03.538Z,22.04
2018-08-18T07:14:03.719Z,22.06
2018-08-18T07:15:03.884Z,22.02
2018-08-18T07:16:04.055Z,22.18
2018-08-18T07:17:04.260Z,22.23
2018-08-18T07:18:04.431Z,22.36
2018-08-18T07:19:04.621Z,22.29
2018-08-18T07:20:04.803Z,22.39
2018-08-18T07:21:04.970Z,22.39
2018-08-18T07:22:05.155Z,22.35
2018-08-18T07:23:05.334Z,22.29
2018-08-18T07:24:05.533Z,22.38
2018-08-18T07:25:05.701Z,22.73
2018-08-18T07:26:05.884Z,22.65
2018-08-18T07:27:06.080Z,22.62
2018-08-18T07:28:06.330Z,22.65
2018-08-18T07:29:06.739Z,22.75
2018-08-18T07:30:06.641Z,22.93
2018-08-18T07:31:06.809Z,23.06
2018-08-18T07:32:07.061Z,23.36
2018-08-18T07:33:07.148Z,23.28
2018-08-18T07:34:07.584Z,23.92
2018-08-18T07:35:07.593Z,24.14
2018-08-18T07:36:07.839Z,24.70
2018-08-18T07:37:07.943Z,25.16
2018-08-18T07:38:08.100Z,25.47
2018-08-18T07:39:08.363Z,25.83
2018-08-18T07:40:08.525Z,26.09
2018-08-18T07:41:08.718Z,26.18
2018-08-18T07:42:08.875Z,26.29
2018-08-18T07:43:09.850Z,26.47
2018-08-18T07:44:09.262Z,26.58
2018-08-18T07:45:09.455Z,26.26
2018-08-18T07:46:09.623Z,26.23
2018-08-18T07:47:09.877Z,25.99
2018-08-18T07:48:10.016Z,26.16
2018-08-18T07:49:10.114Z,26.00
2018-08-18T07:50:10.298Z,26.34
2018-08-18T07:51:10.480Z,26.78
2018-08-18T07:52:10.675Z,27.29
2018-08-18T07:53:10.891Z,27.12
2018-08-18T07:54:11.035Z,27.25
2018-08-18T07:55:11.240Z,26.44
2018-08-18T07:56:11.417Z,25.87
2018-08-18T07:57:11.587Z,25.98
2018-08-18T07:58:12.012Z,25.99
2018-08-18T07:59:11.934Z,26.19
2018-08-18T08:00:12.177Z,26.03
2018-08-18T08:01:12.313Z,26.03
2018-08-18T08:02:12.470Z,26.02
2018-08-18T08:03:12.654Z,25.96
2018-08-18T08:04:12.834Z,25.99
2018-08-18T08:05:13.079Z,26.19
2018-08-18T08:06:13.175Z,26.23
2018-08-18T08:07:13.363Z,26.28
2018-08-18T08:08:13.543Z,26.22
2018-08-18T08:09:13.722Z,26.44
2018-08-18T08:10:13.925Z,26.83
2018-08-18T08:11:14.064Z,26.81
2018-08-18T08:12:14.232Z,26.66
2018-08-18T08:13:14.426Z,26.84
2018-08-18T08:14:14.617Z,26.93
2018-08-18T08:15:14.788Z,26.95
2018-08-18T08:16:14.967Z,27.15
2018-08-18T08:17:15.167Z,27.64
2018-08-18T08:18:15.385Z,27.42
2018-08-18T08:19:15.574Z,27.74
2018-08-18T08:20:15.735Z,28.00
2018-08-18T08:21:15.917Z,28.12
2018-08-18T08:22:16.100Z,28.41
2018-08-18T08:23:16.288Z,28.75
2018-08-18T08:24:16.458Z,27.87
2018-08-18T08:25:16.642Z,26.80
2018-08-18T08:26:16.837Z,26.96
2018-08-18T08:27:17.041Z,27.07
2018-08-18T08:28:17.238Z,26.51
2018-08-18T08:29:17.418Z,26.66
2018-08-18T08:30:17.611Z,26.78
2018-08-18T08:31:17.788Z,26.74
2018-08-18T08:32:17.986Z,27.21
2018-08-18T08:33:18.157Z,26.96
2018-08-18T08:34:18.361Z,26.53
2018-08-18T08:35:18.542Z,26.07
2018-08-18T08:36:18.740Z,26.48
2018-08-18T08:37:18.919Z,26.02
2018-08-18T08:38:19.101Z,26.03
2018-08-18T08:39:19.283Z,25.54
2018-08-18T08:40:19.475Z,26.02
2018-08-18T08:41:19.694Z,26.28
2018-08-18T08:42:19.847Z,26.59
2018-08-18T08:43:20.068Z,26.29
2018-08-18T08:44:20.235Z,25.13
2018-08-18T08:45:20.409Z,25.47
2018-08-18T08:46:20.605Z,26.13
2018-08-18T08:47:20.779Z,26.53
2018-08-18T08:48:20.970Z,26.73
2018-08-18T08:49:21.161Z,26.60
2018-08-18T08:50:21.339Z,26.83
2018-08-18T08:51:21.530Z,27.00
2018-08-18T08:52:21.705Z,26.66
2018-08-18T08:53:21.895Z,26.68
2018-08-18T08:54:22.091Z,26.99
2018-08-18T08:55:22.288Z,27.18
2018-08-18T08:56:22.468Z,26.29
2018-08-18T08:57:22.666Z,26.05
2018-08-18T08:58:22.906Z,26.62
2018-08-18T08:59:23.152Z,26.92
2018-08-18T09:00:23.342Z,27.36
2018-08-18T09:01:23.529Z,27.83
2018-08-18T09:02:23.702Z,27.44
2018-08-18T09:03:23.882Z,27.77
2018-08-18T09:04:24.068Z,27.95
2018-08-18T09:05:24.257Z,28.35
2018-08-18T09:06:24.693Z,28.49
2018-08-18T09:07:24.629Z,28.39
2018-08-18T09:08:24.826Z,28.45
2018-08-18T09:09:25.031Z,28.30
2018-08-18T09:10:25.317Z,27.74
2018-08-18T09:11:25.393Z,27.82
2018-08-18T09:12:25.582Z,27.54
2018-08-18T09:13:25.768Z,27.20
2018-08-18T09:14:25.968Z,27.48
2018-08-18T09:15:26.136Z,26.96
2018-08-18T09:16:26.315Z,27.29
2018-08-18T09:17:26.493Z,27.42
2018-08-18T09:18:26.672Z,27.85
2018-08-18T09:19:26.829Z,28.54
2018-08-18T09:20:27.060Z,28.86
2018-08-18T09:21:27.256Z,28.79
2018-08-18T09:22:27.438Z,29.13
2018-08-18T09:23:27.631Z,29.23
2018-08-18T09:24:27.824Z,29.50
2018-08-18T09:25:28.021Z,29.22
2018-08-18T09:26:28.260Z,29.20
2018-08-18T09:27:28.385Z,29.47
2018-08-18T09:28:28.560Z,29.41
2018-08-18T09:29:28.756Z,28.94
2018-08-18T09:30:28.922Z,29.34
2018-08-18T09:31:29.097Z,29.87
2018-08-18T09:32:29.308Z,29.61
2018-08-18T09:33:29.459Z,29.20
2018-08-18T09:34:29.638Z,28.82
2018-08-18T09:35:29.808Z,28.49
2018-08-18T09:36:29.996Z,28.54
2018-08-18T09:37:30.171Z,28.42
2018-08-18T09:38:30.364Z,28.17
2018-08-18T09:39:30.524Z,28.17
2018-08-18T09:40:30.722Z,28.17
2018-08-18T09:41:30.912Z,28.05
2018-08-18T09:42:31.097Z,27.92
2018-08-18T09:43:31.305Z,27.87
2018-08-18T09:44:31.483Z,27.82
2018-08-18T09:45:31.740Z,27.92
2018-08-18T09:46:31.853Z,27.71
2018-08-18T09:47:32.043Z,27.70
2018-08-18T09:48:32.228Z,27.77
2018-08-18T09:49:32.409Z,27.83
2018-08-18T09:50:32.596Z,27.85
2018-08-18T09:51:32.784Z,27.87
2018-08-18T09:52:32.977Z,27.98
2018-08-18T09:53:33.159Z,27.45
2018-08-18T09:54:33.351Z,27.08
2018-08-18T09:55:33.528Z,26.77
2018-08-18T09:56:33.709Z,26.88
2018-08-18T09:57:33.898Z,27.02
2018-08-18T09:58:34.103Z,27.39
2018-08-18T09:59:34.277Z,27.90
2018-08-18T10:00:34.475Z,28.32
2018-08-18T10:01:34.658Z,28.48
2018-08-18T10:02:34.853Z,28.63
2018-08-18T10:03:35.021Z,27.21
2018-08-18T10:04:35.202Z,27.80
2018-08-18T10:05:35.390Z,27.92
2018-08-18T10:06:35.590Z,28.79
2018-08-18T10:07:35.770Z,29.32
2018-08-18T10:08:35.955Z,29.59
2018-08-18T10:09:36.141Z,29.10
2018-08-18T10:10:36.323Z,28.96
2018-08-18T10:11:36.571Z,28.60
2018-08-18T10:12:36.723Z,28.52
2018-08-18T10:13:36.902Z,28.37
2018-08-18T10:14:37.126Z,27.95
2018-08-18T10:15:37.291Z,28.29
2018-08-18T10:16:37.510Z,28.14
2018-08-18T10:17:37.658Z,27.96
2018-08-18T10:18:37.863Z,27.54
2018-08-18T10:19:38.042Z,28.26
2018-08-18T10:20:38.231Z,27.78
2018-08-18T10:21:38.410Z,27.75
2018-08-18T10:22:38.608Z,27.92
2018-08-18T10:23:38.789Z,27.98
2018-08-18T10:24:38.974Z,28.10
2018-08-18T10:25:39.140Z,28.20
2018-08-18T10:26:39.362Z,28.27
2018-08-18T10:27:39.531Z,28.42
2018-08-18T10:28:39.694Z,28.48
2018-08-18T10:29:40.761Z,28.41
2018-08-18T10:30:40.041Z,28.54
2018-08-18T10:31:40.218Z,28.60
2018-08-18T10:32:40.408Z,28.60
2018-08-18T10:33:40.660Z,28.56
2018-08-18T10:34:40.828Z,28.54
2018-08-18T10:35:41.026Z,28.07
2018-08-18T10:36:41.212Z,27.40
2018-08-18T10:37:41.398Z,26.88
2018-08-18T10:38:41.602Z,26.68
2018-08-18T10:39:41.794Z,26.83
2018-08-18T10:40:41.989Z,26.92
2018-08-18T10:41:42.166Z,27.08
2018-08-18T10:42:42.391Z,27.29
2018-08-18T10:43:42.605Z,27.71
2018-08-18T10:44:42.763Z,27.47
2018-08-18T10:45:42.962Z,27.40
2018-08-18T10:46:43.101Z,27.68
2018-08-18T10:47:43.349Z,27.40
2018-08-18T10:48:43.447Z,26.70
2018-08-18T10:49:43.626Z,27.02
2018-08-18T10:50:43.818Z,27.21
2018-08-18T10:51:44.060Z,27.55
2018-08-18T10:52:44.195Z,27.93
2018-08-18T10:53:44.389Z,28.41
2018-08-18T10:54:44.568Z,28.69
2018-08-18T10:55:44.753Z,28.69
2018-08-18T10:56:44.985Z,28.72
2018-08-18T10:57:45.183Z,28.78
2018-08-18T10:58:45.379Z,28.86
2018-08-18T10:59:45.552Z,28.91
2018-08-18T11:00:45.717Z,28.96
2018-08-18T11:01:45.987Z,28.86
2018-08-18T11:02:46.083Z,29.05
2018-08-18T11:03:46.330Z,28.62
2018-08-18T11:04:46.453Z,28.60
2018-08-18T11:05:46.647Z,28.51
2018-08-18T11:06:46.846Z,28.67
2018-08-18T11:07:47.031Z,28.96
2018-08-18T11:08:47.218Z,28.84
2018-08-18T11:09:47.393Z,28.97
2018-08-18T11:10:47.584Z,28.98
2018-08-18T11:11:47.857Z,29.16
2018-08-18T11:12:48.210Z,29.34
2018-08-18T11:13:48.162Z,28.93
2018-08-18T11:14:48.331Z,28.91
2018-08-18T11:15:48.513Z,29.12
2018-08-18T11:16:48.697Z,29.20
2018-08-18T11:17:48.868Z,29.51
2018-08-18T11:18:49.060Z,29.50
2018-08-18T11:19:49.236Z,29.41
2018-08-18T11:20:49.397Z,29.59
2018-08-18T11:21:49.631Z,29.63
2018-08-18T11:22:49.784Z,29.63
2018-08-18T11:23:49.950Z,29.61
2018-08-18T11:24:50.152Z,29.79
2018-08-18T11:25:50.323Z,29.73
2018-08-18T11:26:50.505Z,29.73
2018-08-18T11:27:50.693Z,29.78
2018-08-18T11:28:51.138Z,29.63
2018-08-18T11:29:51.105Z,29.61
2018-08-18T11:30:51.253Z,29.65
2018-08-18T11:31:51.421Z,29.29
2018-08-18T11:32:51.619Z,29.12
2018-08-18T11:33:51.802Z,28.81
2018-08-18T11:34:51.966Z,28.85
2018-08-18T11:35:52.146Z,28.82
2018-08-18T11:36:52.316Z,28.86
2018-08-18T11:37:52.490Z,28.72
2018-08-18T11:38:52.664Z,28.66
2018-08-18T11:39:52.828Z,28.56
2018-08-18T11:40:52.994Z,28.02
2018-08-18T11:41:53.199Z,27.98
2018-08-18T11:42:53.442Z,27.87
2018-08-18T11:43:53.555Z,27.98
2018-08-18T11:44:53.730Z,27.96
2018-08-18T11:45:53.943Z,28.33
2018-08-18T11:46:54.173Z,28.72
2018-08-18T11:47:54.291Z,28.62
2018-08-18T11:48:54.465Z,28.72
2018-08-18T11:49:54.649Z,28.76
2018-08-18T11:50:54.839Z,28.85
2018-08-18T11:51:55.011Z,28.52
2018-08-18T11:52:55.185Z,28.49
2018-08-18T11:53:55.374Z,28.79
2018-08-18T11:54:55.556Z,28.91
2018-08-18T11:55:55.738Z,28.89
2018-08-18T11:57:56.099Z,28.44
2018-08-18T11:58:56.319Z,28.42
2018-08-18T11:59:56.502Z,28.37
2018-08-18T12:00:56.752Z,28.48
2018-08-18T12:01:56.917Z,28.51
2018-08-18T12:02:57.068Z,28.56
2018-08-18T12:03:57.296Z,28.70
2018-08-18T12:04:57.594Z,28.93
2018-08-18T12:05:57.656Z,29.04
2018-08-18T12:06:57.831Z,29.19
2018-08-18T12:07:58.011Z,29.24
2018-08-18T12:08:58.242Z,29.32
2018-08-18T12:09:58.470Z,29.53
2018-08-18T12:10:58.813Z,29.68
2018-08-18T12:11:58.853Z,29.91
2018-08-18T12:12:59.068Z,30.03
2018-08-18T12:13:59.292Z,30.00
2018-08-18T12:14:59.472Z,29.86
2018-08-18T12:15:59.643Z,29.81
2018-08-18T12:16:59.811Z,29.76
2018-08-18T12:18:00.004Z,29.78
2018-08-18T12:19:00.184Z,29.88
2018-08-18T12:20:00.363Z,30.03
2018-08-18T12:21:00.556Z,30.00
2018-08-18T12:22:00.777Z,29.95
2018-08-18T12:23:00.931Z,29.98
2018-08-18T12:24:01.084Z,30.02
2018-08-18T12:25:01.313Z,29.82
2018-08-18T12:26:01.566Z,29.95
2018-08-18T12:27:01.762Z,29.87
2018-08-18T12:28:01.976Z,29.75
2018-08-18T12:30:02.351Z,29.84
2018-08-18T12:31:02.526Z,29.72
2018-08-18T12:32:02.716Z,29.50
2018-08-18T12:33:02.892Z,29.42
2018-08-18T12:34:03.107Z,29.32
2018-08-18T12:35:03.305Z,29.10
2018-08-18T12:36:03.469Z,29.12
2018-08-18T12:37:03.826Z,29.20
2018-08-18T12:38:03.829Z,29.08
2018-08-18T12:39:03.996Z,29.08
2018-08-18T12:40:04.184Z,29.05
2018-08-18T12:41:04.373Z,28.91
2018-08-18T12:42:04.548Z,28.97
2018-08-18T12:43:04.730Z,28.89
2018-08-18T12:44:04.905Z,28.49
2018-08-18T12:45:05.130Z,28.63
2018-08-18T12:46:05.306Z,28.85
2018-08-18T12:47:05.493Z,28.79
2018-08-18T12:48:05.666Z,28.97
2018-08-18T12:49:05.869Z,28.94
2018-08-18T12:50:06.500Z,28.85
2018-08-18T12:51:06.207Z,28.86
2018-08-18T12:52:06.387Z,28.94
2018-08-18T12:53:06.565Z,29.07
2018-08-18T12:54:06.736Z,29.01
2018-08-18T12:55:06.936Z,29.12
2018-08-18T12:56:07.114Z,29.12
2018-08-18T12:57:07.300Z,29.19
2018-08-18T12:58:07.537Z,29.20
2018-08-18T12:59:07.660Z,29.32